Time;durP1;ratioP1;P1;durP2;ratioP2;P2;SDS_P1;SDS_P2;PMS_P1;PMS_P2;Temp;Humidity;BMP_temperature;BMP_pressure;BME280_temperature;BME280_humidity;BME280_pressure;Samples;Min_cycle;Max_cycle;Signal;HPM_P1;HPM_P2
2022/08/15 00:00:10;;;;;;;13.75;7.30;;;;;;;24.14;95.56;99231.04;1742886;80;21540;-58
2022/08/15 00:02:43;;;;;;;7.92;6.70;;;;;;;24.09;95.97;99239.56;1740482;80;21491;-58
2022/08/15 00:05:13;;;;;;;11.05;6.78;;;;;;;24.08;96.06;99240.08;1713753;81;21447;-59
2022/08/15 00:07:40;;;;;;;7.10;6.47;;;;;;;24.05;96.46;99244.92;1707055;81;21465;-59
2022/08/15 00:10:08;;;;;;;9.20;6.95;;;;;;;24.07;96.37;99246.47;1702450;83;21525;-59
2022/08/15 00:12:35;;;;;;;11.12;7.00;;;;;;;24.03;96.63;99245.09;1705973;81;21800;-60
2022/08/15 00:15:12;;;;;;;11.00;7.10;;;;;;;24.08;96.54;99240.59;1693771;83;20963;-60
2022/08/15 00:17:40;;;;;;;14.00;6.78;;;;;;;24.06;96.61;99239.40;1696990;81;21485;-61
2022/08/15 00:20:09;;;;;;;13.83;7.22;;;;;;;24.01;96.71;99241.72;1700749;83;21466;-60
2022/08/15 00:22:48;;;;;;;10.88;6.95;;;;;;;24.07;96.64;99238.89;1706269;83;21582;-59
2022/08/15 00:25:16;;;;;;;7.28;6.42;;;;;;;24.01;96.93;99249.78;1690102;83;21871;-59
2022/08/15 00:27:43;;;;;;;7.67;6.97;;;;;;;24.01;96.61;99239.55;1704584;83;21438;-59
2022/08/15 00:30:11;;;;;;;11.33;8.03;;;;;;;23.98;96.47;99244.75;1705798;81;21506;-59
2022/08/15 00:32:38;;;;;;;8.78;7.08;;;;;;;23.96;96.47;99243.21;1688223;81;21516;-59
2022/08/15 00:35:35;;;;;;;9.05;7.20;;;;;;;23.92;96.64;99244.03;1716061;81;21596;-59
2022/08/15 00:37:37;;;;;;;7.28;6.72;;;;;;;23.90;97.30;99240.67;1696093;83;21844;-60
2022/08/15 00:40:04;;;;;;;7.17;6.55;;;;;;;23.89;97.62;99240.34;1710677;82;21487;-61
2022/08/15 00:42:31;;;;;;;;;;;;;;;23.85;97.83;99240.33;1700515;81;21438;-59
2022/08/15 00:44:58;;;;;;;10.15;7.40;;;;;;;23.88;97.80;99238.65;1683901;83;20433;-60
2022/08/15 00:47:25;;;;;;;8.20;7.25;;;;;;;23.89;97.36;99230.95;1709586;81;22237;-60
2022/08/15 00:49:51;;;;;;;7.35;6.78;;;;;;;23.85;97.38;99229.59;1706340;81;21773;-59
2022/08/15 00:52:26;;;;;;;8.25;6.75;;;;;;;23.80;97.54;99231.91;1696845;83;21072;-60
2022/08/15 00:54:57;;;;;;;8.98;6.78;;;;;;;23.76;97.57;99223.81;1688044;82;20971;-61
2022/08/15 00:57:30;;;;;;;7.37;6.78;;;;;;;23.80;97.87;99223.86;1670800;83;21507;-60
2022/08/15 01:00:00;;;;;;;8.73;6.90;;;;;;;23.84;97.93;99222.02;1697963;83;21546;-59
2022/08/15 01:02:29;;;;;;;8.13;7.42;;;;;;;23.85;97.94;99222.38;1691718;82;21764;-61
2022/08/15 01:04:56;;;;;;;14.18;7.20;;;;;;;23.61;97.86;99173.93;1689866;82;21190;-60
2022/08/15 01:07:23;;;;;;;8.98;7.17;;;;;;;23.85;97.92;99223.72;1698065;82;21405;-60
2022/08/15 01:09:51;;;;;;;7.00;6.30;;;;;;;23.88;97.77;99214.02;1698653;82;21499;-60
2022/08/15 01:12:22;;;;;;;7.80;7.10;;;;;;;23.92;97.48;99211.81;1690340;82;21501;-60
2022/08/15 01:15:02;;;;;;;7.28;6.45;;;;;;;23.87;97.77;99212.31;1705602;82;21996;-59
2022/08/15 01:17:30;;;;;;;11.12;6.95;;;;;;;23.93;97.39;99206.80;1701213;82;21093;-60
2022/08/15 01:20:07;;;;;;;8.08;6.95;;;;;;;23.96;96.99;99205.14;1707665;83;25609;-60
2022/08/15 01:22:47;;;;;;;9.10;6.80;;;;;;;23.97;96.73;99201.95;1697051;82;21013;-60
2022/08/15 01:25:28;;;;;;;7.47;6.70;;;;;;;23.96;96.78;99201.12;1693666;82;21519;-59
2022/08/15 01:28:03;;;;;;;7.78;7.03;;;;;;;24.00;96.66;99201.13;1694281;83;21957;-60
2022/08/15 01:30:45;;;;;;;6.90;6.30;;;;;;;24.01;96.70;99199.27;1680776;83;22266;-59
2022/08/15 01:33:13;;;;;;;11.88;6.65;;;;;;;24.02;96.33;99192.41;1691999;83;21479;-60
2022/08/15 01:35:42;;;;;;;8.18;6.55;;;;;;;24.08;96.41;99197.62;1678910;83;20985;-59
2022/08/15 01:38:26;;;;;;;7.22;6.53;;;;;;;24.13;95.75;99197.98;1679374;84;21442;-59
2022/08/15 01:41:23;;;;;;;8.58;6.20;;;;;;;24.13;95.56;99188.58;1681622;83;21835;-58
2022/08/15 01:44:04;;;;;;;8.45;7.65;;;;;;;24.07;95.37;99191.90;1689372;82;21565;-60
2022/08/15 01:46:38;;;;;;;8.60;6.53;;;;;;;23.97;95.48;99196.58;1695877;83;21539;-60
2022/08/15 01:49:13;;;;;;;8.08;7.28;;;;;;;24.00;95.51;99191.73;1679777;82;21535;-60
2022/08/15 01:51:41;;;;;;;9.80;6.40;;;;;;;24.05;95.64;99189.88;1666412;83;21459;-61
2022/08/15 01:54:11;;;;;;;9.50;6.97;;;;;;;24.07;95.56;99188.73;1663834;83;21828;-59
2022/08/15 01:56:42;;;;;;;7.50;6.35;;;;;;;24.08;95.40;99194.42;1696026;82;21035;-59
2022/08/15 01:59:19;;;;;;;12.20;6.35;;;;;;;24.02;95.36;99184.34;1736160;82;21481;-60
2022/08/15 02:01:59;;;;;;;7.53;6.50;;;;;;;23.98;95.41;99189.71;1735034;81;21117;-60
2022/08/15 02:04:31;;;;;;;10.93;6.67;;;;;;;23.98;95.66;99181.66;1738628;80;21565;-60
2022/08/15 02:07:01;;;;;;;8.85;6.47;;;;;;;23.95;95.81;99181.97;1736485;81;21827;-61
2022/08/15 02:09:29;;;;;;;8.40;6.00;;;;;;;24.01;95.54;99177.28;1692702;83;21501;-61
2022/08/15 02:12:00;;;;;;;6.85;6.20;;;;;;;24.09;95.34;99172.43;1732160;81;21465;-61
2022/08/15 02:14:27;;;;;;;10.28;7.03;;;;;;;24.09;95.16;99177.33;1731430;80;21569;-61
2022/08/15 02:16:54;;;;;;;8.78;6.72;;;;;;;24.06;95.10;99182.18;1738553;80;21435;-61
2022/08/15 02:19:20;;;;;;;7.12;6.45;;;;;;;24.02;94.92;99183.01;1734222;80;21472;-61
2022/08/15 02:21:49;;;;;;;7.50;6.65;;;;;;;24.08;94.78;99181.00;1690512;83;21501;-60
2022/08/15 02:24:19;;;;;;;8.45;6.72;;;;;;;24.05;95.24;99181.83;1735732;81;21433;-61
2022/08/15 02:26:50;;;;;;;9.93;6.85;;;;;;;24.04;94.90;99182.34;1729590;80;21456;-61
2022/08/15 02:29:19;;;;;;;8.60;6.35;;;;;;;24.04;95.22;99186.36;1737418;80;21575;-60
2022/08/15 02:31:46;;;;;;;10.25;5.90;;;;;;;24.04;95.24;99183.68;1736581;80;21821;-60
2022/08/15 02:34:13;;;;;;;12.45;6.85;;;;;;;24.07;95.37;99187.88;1738051;80;21059;-61
2022/08/15 02:36:40;;;;;;;;;;;;;;;24.10;95.07;99182.19;1739628;80;21476;-61
2022/08/15 02:39:09;;;;;;;8.70;6.65;;;;;;;24.05;95.09;99185.85;1732063;80;20133;-60
2022/08/15 02:41:40;;;;;;;7.60;6.28;;;;;;;24.09;94.77;99189.41;1692640;83;21581;-61
2022/08/15 02:44:08;;;;;;;10.53;6.28;;;;;;;24.14;94.60;99178.16;1719914;81;21912;-61
2022/08/15 02:46:37;;;;;;;9.98;6.45;;;;;;;24.13;94.17;99179.66;1745065;80;21508;-61
2022/08/15 02:49:11;;;;;;;7.58;6.47;;;;;;;24.11;94.48;99183.88;1733790;81;21451;-62
2022/08/15 02:51:35;;;;;;;8.00;6.70;;;;;;;24.12;94.61;99184.71;1737117;80;21605;-61
2022/08/15 02:54:04;;;;;;;10.85;7.47;;;;;;;24.14;94.64;99178.67;1732236;80;21457;-61
2022/08/15 02:56:32;;;;;;;7.67;6.92;;;;;;;24.14;94.52;99181.36;1739628;80;21883;-61
2022/08/15 02:59:00;;;;;;;8.35;6.85;;;;;;;24.14;94.58;99181.36;1736558;80;21498;-61
2022/08/15 03:01:27;;;;;;;11.05;6.72;;;;;;;24.18;94.27;99175.99;1740406;80;21562;-61
2022/08/15 03:03:56;;;;;;;7.97;5.92;;;;;;;24.14;94.49;99179.50;1730486;80;21002;-60
2022/08/15 03:06:26;;;;;;;7.10;6.35;;;;;;;24.19;94.26;99182.55;1702672;82;21590;-61
2022/08/15 03:08:53;;;;;;;8.45;7.42;;;;;;;24.19;94.44;99179.03;1731727;80;22104;-61
2022/08/15 03:11:20;;;;;;;8.48;6.90;;;;;;;24.17;94.67;99177.84;1733732;80;20985;-61
2022/08/15 03:13:48;;;;;;;7.22;6.17;;;;;;;24.14;94.89;99181.36;1734519;80;21454;-61
2022/08/15 03:16:15;;;;;;;8.35;5.87;;;;;;;24.12;94.73;99178.00;1738464;81;21452;-61
2022/08/15 03:18:42;;;;;;;6.53;6.03;;;;;;;24.13;94.78;99177.84;1737106;80;21519;-61
2022/08/15 03:21:13;;;;;;;6.78;6.03;;;;;;;24.13;94.78;99181.00;1739017;80;21622;-61
2022/08/15 03:23:48;;;;;;;7.15;6.00;;;;;;;24.16;94.62;99178.83;1728292;81;21540;-61
2022/08/15 03:26:11;;;;;;;7.65;6.75;;;;;;;24.20;94.45;99176.66;1735906;80;21574;-61
2022/08/15 03:28:38;;;;;;;7.15;6.50;;;;;;;24.20;94.41;99180.69;1700353;83;21474;-61
2022/08/15 03:31:07;;;;;;;8.30;6.33;;;;;;;24.19;94.40;99182.55;1693492;82;21566;-62
2022/08/15 03:33:35;;;;;;;7.15;6.22;;;;;;;24.18;94.59;99173.30;1739697;80;21753;-61
2022/08/15 03:36:02;;;;;;;7.25;6.42;;;;;;;24.20;94.45;99173.47;1739082;80;21444;-61
2022/08/15 03:38:29;;;;;;;8.50;6.65;;;;;;;24.17;94.57;99172.47;1749647;80;21021;-60
2022/08/15 03:40:56;;;;;;;7.30;6.28;;;;;;;24.20;94.67;99173.98;1739458;80;21022;-60
2022/08/15 03:43:27;;;;;;;13.95;6.70;;;;;;;24.15;95.19;99170.45;1729720;80;21503;-60
2022/08/15 03:46:00;;;;;;;7.22;6.35;;;;;;;24.13;95.24;99173.81;1741899;80;21815;-61
2022/08/15 03:48:31;;;;;;;7.70;6.35;;;;;;;24.13;95.22;99177.84;1734324;80;21478;-60
2022/08/15 03:50:59;;;;;;;10.50;7.15;;;;;;;24.16;95.46;99176.66;1736914;80;21638;-61
2022/08/15 03:53:35;;;;;;;8.48;6.33;;;;;;;24.16;95.48;99173.47;1736412;81;20951;-60
2022/08/15 03:56:03;;;;;;;9.50;6.20;;;;;;;24.14;95.66;99171.45;1745010;80;21523;-60
2022/08/15 03:58:33;;;;;;;9.10;6.10;;;;;;;24.14;95.47;99177.33;1704861;82;21704;-61
2022/08/15 04:01:00;;;;;;;7.20;6.53;;;;;;;24.17;95.45;99175.67;1708823;82;21551;-61
2022/08/15 04:03:29;;;;;;;9.95;6.55;;;;;;;24.18;95.44;99166.59;1693684;82;21583;-60
2022/08/15 04:05:59;;;;;;;8.23;6.65;;;;;;;24.20;95.52;99163.23;1744963;80;21486;-61
2022/08/15 04:08:48;;;;;;;9.15;6.90;;;;;;;24.20;95.96;99162.72;1735010;80;21565;-60
2022/08/15 04:11:16;;;;;;;9.95;6.97;;;;;;;24.20;95.96;99158.70;1625354;86;21849;-60
2022/08/15 04:13:44;;;;;;;;;;;;;;;24.21;95.92;99161.73;1601199;88;21512;-60
2022/08/15 04:16:13;;;;;;;6.87;6.28;;;;;;;24.25;96.55;99166.27;1593745;88;20195;-60
2022/08/15 04:18:40;;;;;;;6.60;6.05;;;;;;;24.31;95.86;99163.43;1630750;87;21618;-60
2022/08/15 04:21:10;;;;;;;9.95;6.37;;;;;;;24.33;95.85;99159.56;1632106;87;21507;-62
2022/08/15 04:23:41;;;;;;;7.97;6.80;;;;;;;24.38;95.59;99163.94;1633730;86;21818;-60
2022/08/15 04:26:08;;;;;;;9.23;6.50;;;;;;;24.37;95.39;99168.96;1630095;87;21550;-60
2022/08/15 04:28:35;;;;;;;13.70;8.18;;;;;;;24.36;95.38;99167.81;1598093;87;21659;-60
2022/08/15 04:31:06;;;;;;;8.07;6.80;;;;;;;24.37;95.54;99170.81;1600101;88;21550;-60
2022/08/15 04:33:34;;;;;;;9.40;7.08;;;;;;;24.40;95.51;99171.33;1632839;87;21432;-60
2022/08/15 04:36:09;;;;;;;9.65;6.67;;;;;;;24.43;95.15;99164.30;1660966;83;21813;-60
2022/08/15 04:38:39;;;;;;;9.15;7.22;;;;;;;24.45;95.06;99168.16;1686659;82;21587;-60
2022/08/15 04:41:07;;;;;;;16.37;7.00;;;;;;;24.49;94.89;99160.09;1684125;82;21435;-59
2022/08/15 04:43:35;;;;;;;7.60;6.83;;;;;;;24.52;94.64;99158.94;1688768;82;21693;-60
2022/08/15 04:46:02;;;;;;;7.30;6.60;;;;;;;24.60;94.23;99156.25;1679896;82;21042;-60
2022/08/15 04:48:30;;;;;;;9.13;6.60;;;;;;;24.60;94.30;99159.80;1661119;84;21915;-60
2022/08/15 04:50:58;;;;;;;11.73;6.53;;;;;;;24.64;94.31;99154.42;1687476;84;21435;-60
2022/08/15 04:53:29;;;;;;;9.88;7.15;;;;;;;24.66;94.25;99158.29;1689346;83;21483;-62
2022/08/15 04:55:56;;;;;;;7.05;6.37;;;;;;;24.69;94.70;99157.93;1681517;83;21562;-60
2022/08/15 04:58:22;;;;;;;8.00;6.53;;;;;;;24.71;94.64;99154.56;1692973;82;21068;-60
2022/08/15 05:01:02;;;;;;;9.93;7.10;;;;;;;24.74;94.85;99147.52;1689631;82;21898;-60
2022/08/15 05:03:37;;;;;;;13.25;7.40;;;;;;;24.76;94.64;99152.22;1690422;82;21515;-63
2022/08/15 05:06:07;;;;;;;8.30;7.12;;;;;;;24.74;93.99;99156.09;1659018;84;28748;-64
2022/08/15 05:08:36;;;;;;;8.25;6.53;;;;;;;24.79;94.02;99157.27;1656995;84;21656;-64
2022/08/15 05:11:17;;;;;;;7.87;6.87;;;;;;;24.81;94.25;99151.22;1677974;83;21447;-60
2022/08/15 05:13:54;;;;;;;7.75;7.03;;;;;;;24.92;93.45;99142.45;1668175;83;21814;-59
2022/08/15 05:16:22;;;;;;;8.50;6.97;;;;;;;24.97;92.30;99135.56;1680615;83;21672;-60
2022/08/15 05:18:50;;;;;;;7.67;7.03;;;;;;;24.94;92.86;99133.71;1680362;83;27267;-60
2022/08/15 05:21:16;;;;;;;7.58;6.87;;;;;;;24.97;92.83;99128.83;1683030;83;21445;-60
2022/08/15 05:23:43;;;;;;;8.15;6.80;;;;;;;25.02;92.77;99127.00;1681824;83;21421;-60
2022/08/15 05:26:12;;;;;;;7.72;6.92;;;;;;;25.07;92.10;99125.95;1671016;83;21550;-60
2022/08/15 05:28:40;;;;;;;8.23;7.42;;;;;;;25.09;92.39;99122.61;1650376;85;21516;-59
2022/08/15 05:31:10;;;;;;;7.53;6.85;;;;;;;25.17;91.54;99125.27;1667978;83;21503;-59
2022/08/15 05:33:37;;;;;;;10.48;6.90;;;;;;;25.19;90.91;99117.87;1675726;84;28656;-59
2022/08/15 05:36:05;;;;;;;8.15;6.33;;;;;;;25.27;90.81;99114.86;1680380;83;21448;-59
2022/08/15 05:38:52;;;;;;;8.80;6.58;;;;;;;25.30;90.34;99112.66;1641410;85;21944;-59
2022/08/15 05:41:52;;;;;;;9.58;6.83;;;;;;;25.38;89.56;99100.52;1683993;83;21485;-58
2022/08/15 05:44:57;;;;;;;7.50;6.75;;;;;;;25.41;89.19;99103.35;1605909;85;21528;-59
2022/08/15 05:47:35;;;;;;;9.88;7.20;;;;;;;25.44;88.11;99101.16;1667037;83;21572;-58
2022/08/15 05:50:32;;;;;;;7.12;6.42;;;;;;;25.51;87.56;99094.58;1674278;83;21526;-59
2022/08/15 05:53:50;;;;;;;10.15;7.15;;;;;;;25.64;87.06;99092.16;1668661;83;21757;-60
2022/08/15 05:56:24;;;;;;;8.38;6.67;;;;;;;25.67;86.14;99085.57;1647824;85;21502;-61
2022/08/15 05:58:59;;;;;;;8.83;7.00;;;;;;;25.71;86.99;99085.58;1655348;83;21512;-59
2022/08/15 06:01:53;;;;;;;14.50;7.08;;;;;;;25.89;86.57;99083.94;1676867;83;21092;-59
2022/08/15 06:04:28;;;;;;;7.58;6.12;;;;;;;25.99;85.75;99080.55;1682959;82;21515;-59
2022/08/15 06:06:55;;;;;;;7.70;6.20;;;;;;;26.05;84.76;99076.30;1649955;83;21916;-59
2022/08/15 06:09:40;;;;;;;10.68;6.55;;;;;;;26.08;83.59;99075.92;1681075;83;20981;-59
2022/08/15 06:12:12;;;;;;;9.43;6.40;;;;;;;26.15;82.83;99076.06;1695834;82;21496;-61
2022/08/15 06:14:43;;;;;;;13.10;7.05;;;;;;;26.20;82.14;99074.98;1706821;81;21078;-60
2022/08/15 06:17:15;;;;;;;6.37;5.87;;;;;;;26.25;82.31;99071.77;1711984;82;20985;-60
2022/08/15 06:19:46;;;;;;;7.67;6.90;;;;;;;26.29;81.56;99087.38;1707385;81;21816;-60
2022/08/15 06:22:41;;;;;;;7.22;6.65;;;;;;;26.33;81.32;99085.17;1683121;83;21498;-60
2022/08/15 06:26:00;;;;;;;7.10;6.25;;;;;;;26.34;80.81;99078.77;1623807;86;21552;-60
2022/08/15 06:28:50;;;;;;;9.18;7.00;;;;;;;26.34;80.40;99070.17;1647626;86;21594;-59
2022/08/15 06:31:30;;;;;;;10.53;5.95;;;;;;;26.39;79.93;99064.22;1679783;84;21026;-60
2022/08/15 06:34:41;;;;;;;10.18;6.62;;;;;;;26.41;80.45;99064.91;1685219;84;22063;-59
2022/08/15 06:37:17;;;;;;;10.78;6.62;;;;;;;26.42;80.37;99078.17;1680145;84;21426;-60
2022/08/15 06:39:55;;;;;;;7.97;6.42;;;;;;;26.51;79.87;99087.04;1675999;84;21618;-60
2022/08/15 06:42:39;;;;;;;6.75;6.15;;;;;;;26.52;79.07;99094.61;1678168;84;21463;-60
2022/08/15 06:45:26;;;;;;;11.70;6.62;;;;;;;26.50;79.41;99091.26;1669272;83;21521;-59
2022/08/15 06:47:57;;;;;;;;;;;;;;;26.54;79.26;99081.78;1678891;84;21784;-59
2022/08/15 06:50:35;;;;;;;6.95;6.42;;;;;;;26.53;78.75;99076.91;1700933;81;20504;-59
2022/08/15 06:53:14;;;;;;;9.65;6.92;;;;;;;26.50;78.50;99092.09;1732458;81;21605;-60
2022/08/15 06:55:47;;;;;;;8.93;6.62;;;;;;;26.45;78.85;99095.86;1740447;81;21525;-61
2022/08/15 06:58:34;;;;;;;6.95;6.28;;;;;;;26.45;78.83;99100.39;1736713;81;21497;-61
2022/08/15 07:01:24;;;;;;;9.83;7.03;;;;;;;26.40;79.24;99096.38;1738882;81;21764;-59
2022/08/15 07:04:06;;;;;;;8.38;6.42;;;;;;;26.37;79.03;99107.55;1747623;81;21408;-59
2022/08/15 07:06:38;;;;;;;7.90;6.62;;;;;;;26.30;78.93;99107.94;1717168;81;22167;-61
2022/08/15 07:09:25;;;;;;;8.30;6.67;;;;;;;26.29;79.78;99118.37;1709640;79;21502;-60
2022/08/15 07:12:17;;;;;;;8.15;6.83;;;;;;;26.36;79.26;99110.42;1715394;81;21479;-62
2022/08/15 07:15:07;;;;;;;12.18;6.12;;;;;;;26.35;79.06;99115.46;1709550;81;21794;-60
2022/08/15 07:17:49;;;;;;;7.65;5.95;;;;;;;26.30;78.38;99099.85;1706821;81;21478;-60
2022/08/15 07:20:17;;;;;;;6.45;5.85;;;;;;;26.29;78.58;99095.98;1713206;81;21538;-60
2022/08/15 07:22:45;;;;;;;6.83;6.22;;;;;;;26.30;78.18;99111.14;1719246;82;21128;-60
2022/08/15 07:25:18;;;;;;;8.15;6.00;;;;;;;26.31;78.51;99117.67;1747762;80;21060;-61
2022/08/15 07:28:00;;;;;;;7.78;6.65;;;;;;;26.39;78.35;99120.81;1738199;80;21719;-61
2022/08/15 07:30:47;;;;;;;9.23;6.30;;;;;;;26.39;78.87;99123.51;1734921;80;21555;-60
2022/08/15 07:33:40;;;;;;;11.30;6.47;;;;;;;26.43;79.14;99128.89;1742573;80;21510;-61
2022/08/15 07:36:27;;;;;;;7.72;6.25;;;;;;;26.48;79.21;99137.25;1743774;81;21487;-59
2022/08/15 07:38:55;;;;;;;8.18;6.25;;;;;;;26.62;78.78;99127.59;1744791;80;21049;-60
2022/08/15 07:41:33;;;;;;;7.42;6.30;;;;;;;26.71;78.40;99125.64;1744426;80;21745;-60
2022/08/15 07:44:19;;;;;;;6.60;5.97;;;;;;;26.77;79.22;99130.33;1723578;81;21404;-60
2022/08/15 07:46:58;;;;;;;6.85;6.22;;;;;;;26.85;78.13;99125.36;1728931;81;21515;-60
2022/08/15 07:49:31;;;;;;;7.15;6.45;;;;;;;26.91;78.24;99118.70;1740825;80;21025;-60
2022/08/15 07:52:04;;;;;;;8.65;6.45;;;;;;;26.95;77.07;99115.96;1744054;81;21483;-59
2022/08/15 07:54:48;;;;;;;11.50;6.40;;;;;;;26.93;77.69;99123.92;1744417;81;22034;-60
2022/08/15 07:57:36;;;;;;;7.80;6.28;;;;;;;26.93;77.69;99123.41;1724899;81;21464;-60
2022/08/15 08:00:19;;;;;;;7.67;6.87;;;;;;;27.00;77.65;99122.17;1717702;81;21630;-63
2022/08/15 08:03:00;;;;;;;13.10;7.37;;;;;;;26.99;77.21;99119.13;1725300;81;21495;-61
2022/08/15 08:05:40;;;;;;;;;;;;;;;27.05;77.04;99126.51;1717829;81;21760;-62
2022/08/15 08:08:07;;;;;;;7.42;6.42;;;;;;;27.14;76.46;99120.00;1715261;81;22087;-60
2022/08/15 08:10:45;;;;;;;13.62;6.37;;;;;;;27.21;76.73;99123.30;1722292;81;21651;-60
2022/08/15 08:13:43;;;;;;;8.90;6.67;;;;;;;27.27;76.73;99132.86;1714503;81;21467;-60
2022/08/15 08:16:21;;;;;;;6.28;5.75;;;;;;;27.39;76.69;99137.30;1723948;81;21015;-60
2022/08/15 08:19:03;;;;;;;8.35;5.78;;;;;;;27.48;75.68;99128.57;1719919;81;21546;-61
2022/08/15 08:21:41;;;;;;;8.98;5.42;;;;;;;27.63;74.40;99117.23;1715039;81;21878;-60
2022/08/15 08:24:41;;;;;;;7.92;5.37;;;;;;;27.76;74.24;99115.22;1714396;81;21616;-59
2022/08/15 08:27:23;;;;;;;7.40;5.95;;;;;;;27.92;72.22;99110.98;1765088;78;21018;-59
2022/08/15 08:30:10;;;;;;;7.58;6.08;;;;;;;27.99;70.56;99106.16;1773210;78;20991;-61
2022/08/15 08:32:52;;;;;;;6.45;5.85;;;;;;;28.01;70.92;99087.89;1773706;78;21708;-61
2022/08/15 08:35:33;;;;;;;7.22;5.47;;;;;;;27.99;70.35;99102.96;1771550;78;21715;-61
2022/08/15 08:38:25;;;;;;;11.55;5.72;;;;;;;28.10;69.86;99093.48;1765465;78;21487;-62
2022/08/15 08:44:31;;;;;;;12.93;5.92;;;;;;;28.35;69.16;99105.60;1764681;79;21475;-61
2022/08/15 08:47:22;;;;;;;6.28;5.78;;;;;;;28.50;68.88;99097.91;1769373;78;21457;-61
2022/08/15 08:50:03;;;;;;;9.05;5.83;;;;;;;28.64;67.74;99098.91;1774270;78;21993;-61
2022/08/15 08:52:48;;;;;;;6.50;5.62;;;;;;;28.77;67.71;99099.53;1761240;78;21550;-61
2022/08/15 08:55:22;;;;;;;9.53;5.70;;;;;;;28.89;66.08;99096.06;1691689;80;21466;-62
2022/08/15 08:58:12;;;;;;;6.33;5.70;;;;;;;28.92;64.62;99090.79;1770568;78;21464;-61
2022/08/15 09:00:44;;;;;;;7.40;5.37;;;;;;;28.87;64.69;99087.83;1764448;78;21132;-62
2022/08/15 09:03:27;;;;;;;8.63;5.62;;;;;;;28.86;63.86;99091.59;1760530;78;21982;-60
2022/08/15 09:05:56;;;;;;;10.48;5.92;;;;;;;28.81;63.82;99088.11;1769646;78;21562;-61
2022/08/15 09:08:29;;;;;;;10.13;5.80;;;;;;;28.91;64.84;99092.67;1774621;78;21448;-61
2022/08/15 09:11:01;;;;;;;7.95;6.05;;;;;;;29.12;64.71;99096.31;1772982;78;21542;-61
2022/08/15 09:13:34;;;;;;;11.12;7.25;;;;;;;29.17;63.17;99098.47;1781631;78;21456;-60
2022/08/15 09:16:19;;;;;;;9.40;5.25;;;;;;;29.27;62.62;99104.34;1782715;78;21467;-62
2022/08/15 09:19:00;;;;;;;6.62;5.80;;;;;;;29.24;61.96;99097.99;1766436;78;21532;-60
2022/08/15 09:21:27;;;;;;;9.45;5.50;;;;;;;29.26;63.04;99099.98;1761187;79;21482;-61
2022/08/15 09:23:54;;;;;;;7.50;5.17;;;;;;;29.29;61.14;99095.00;1770393;80;21527;-61
2022/08/15 09:26:33;;;;;;;7.97;5.45;;;;;;;29.34;58.92;99082.73;1743747;80;21569;-61
2022/08/15 09:29:26;;;;;;;11.75;5.35;;;;;;;29.28;58.39;99072.19;1763998;78;21770;-61
2022/08/15 09:32:10;;;;;;;7.10;5.40;;;;;;;29.23;57.94;99068.71;1766091;80;21436;-61
2022/08/15 09:34:58;;;;;;;7.72;5.42;;;;;;;29.27;58.09;99061.03;1777109;78;21546;-61
2022/08/15 09:37:28;;;;;;;;;;;;;;;29.26;58.27;99071.03;1777031;78;20994;-61
2022/08/15 09:40:37;;;;;;;12.70;5.15;;;;;;;29.36;58.16;99068.47;1783141;78;20140;-61
2022/08/15 09:43:34;;;;;;;8.48;5.25;;;;;;;29.46;58.81;99072.48;1770122;78;21803;-61
2022/08/15 09:46:20;;;;;;;11.87;5.90;;;;;;;29.58;58.89;99077.33;1768452;78;20960;-61
2022/08/15 09:49:04;;;;;;;9.45;4.87;;;;;;;29.55;58.28;99077.72;1716426;79;21530;-61
2022/08/15 09:51:48;;;;;;;9.65;4.67;;;;;;;29.50;58.08;99076.45;1769429;78;20959;-61
2022/08/15 09:54:20;;;;;;;13.08;5.53;;;;;;;29.45;58.07;99074.03;1762958;78;21534;-61
2022/08/15 09:56:46;;;;;;;12.43;5.60;;;;;;;29.35;60.93;99073.06;1768189;78;23473;-61
2022/08/15 09:59:25;;;;;;;11.48;4.95;;;;;;;29.17;63.17;99080.34;1782022;78;21412;-60
2022/08/15 10:02:00;;;;;;;9.40;5.50;;;;;;;29.06;64.64;99081.70;1772524;78;21456;-60
2022/08/15 10:04:56;;;;;;;7.15;5.00;;;;;;;28.89;65.95;99080.35;1741303;78;21419;-60
2022/08/15 10:07:52;;;;;;;7.40;4.93;;;;;;;28.76;68.06;99072.98;1771806;78;21427;-60
2022/08/15 10:10:36;;;;;;;8.17;5.60;;;;;;;28.65;69.54;99045.12;1767353;78;21833;-60
2022/08/15 10:13:26;;;;;;;10.63;5.20;;;;;;;28.48;71.21;99061.63;1781320;78;21838;-60
2022/08/15 10:15:53;;;;;;;7.37;4.90;;;;;;;28.47;72.29;99067.23;1774274;78;21419;-60
2022/08/15 10:18:28;;;;;;;10.55;5.25;;;;;;;28.48;71.75;99062.13;1771505;78;21435;-60
2022/08/15 10:21:20;;;;;;;13.28;5.35;;;;;;;28.50;72.51;99071.73;1780940;78;21471;-60
2022/08/15 10:23:49;;;;;;;12.45;5.00;;;;;;;28.59;72.32;99067.55;1767205;78;21847;-61
2022/08/15 10:26:28;;;;;;;10.70;5.22;;;;;;;28.68;71.91;99056.91;1770010;78;21707;-60
2022/08/15 10:29:02;;;;;;;10.48;4.97;;;;;;;28.80;71.35;99053.13;1777242;78;21484;-59
2022/08/15 10:31:40;;;;;;;8.30;4.92;;;;;;;28.91;71.51;99054.79;1742811;78;21542;-61
2022/08/15 10:34:29;;;;;;;8.15;5.22;;;;;;;28.96;71.10;99050.65;1768255;78;21521;-62
2022/08/15 10:37:22;;;;;;;11.40;5.20;;;;;;;28.89;71.46;99052.77;1769118;78;22071;-60
2022/08/15 10:40:26;;;;;;;10.98;4.92;;;;;;;28.86;70.40;99040.19;1770563;78;21546;-60
2022/08/15 10:43:20;;;;;;;7.50;4.95;;;;;;;28.73;67.77;99028.77;1771798;78;21554;-60
2022/08/15 10:46:01;;;;;;;13.13;5.08;;;;;;;28.60;68.92;99024.09;1774421;78;21547;-59
2022/08/15 10:48:46;;;;;;;7.33;4.87;;;;;;;28.52;68.80;99008.03;1767388;78;20962;-59
2022/08/15 10:51:44;;;;;;;13.00;5.40;;;;;;;28.45;67.80;99036.33;1774049;78;21888;-60
2022/08/15 10:54:39;;;;;;;11.53;5.20;;;;;;;28.42;68.65;99061.56;1778762;78;21499;-59
2022/08/15 10:57:07;;;;;;;11.20;4.80;;;;;;;28.39;69.70;99062.80;1778583;78;21508;-61
2022/08/15 10:59:41;;;;;;;9.73;5.05;;;;;;;28.37;69.69;99056.75;1749025;78;21609;-60
2022/08/15 11:02:38;;;;;;;6.67;5.40;;;;;;;28.46;69.96;99052.02;1774159;78;21506;-60
2022/08/15 11:05:09;;;;;;;14.38;4.87;;;;;;;28.45;70.48;99057.13;1770552;78;21852;-60
2022/08/15 11:07:38;;;;;;;9.68;5.30;;;;;;;28.56;70.47;99066.58;1768121;78;21635;-60
2022/08/15 11:10:09;;;;;;;11.48;4.95;;;;;;;28.64;69.52;99057.81;1777243;78;21554;-62
2022/08/15 11:12:37;;;;;;;9.33;5.10;;;;;;;28.67;68.85;99056.08;1777771;78;21539;-61
2022/08/15 11:15:27;;;;;;;6.17;4.67;;;;;;;28.73;68.65;99064.75;1752995;80;21569;-62
2022/08/15 11:18:04;;;;;;;10.48;4.92;;;;;;;28.76;68.09;99057.27;1768368;80;21510;-62
2022/08/15 11:20:40;;;;;;;11.90;4.67;;;;;;;28.67;67.82;99064.69;1770239;78;21569;-63
2022/08/15 11:23:08;;;;;;;9.00;4.97;;;;;;;28.68;67.79;99083.43;1777954;78;22094;-62
2022/08/15 11:25:38;;;;;;;15.32;4.87;;;;;;;28.66;68.76;99088.73;1770318;78;21569;-64
2022/08/15 11:28:24;;;;;;;8.38;4.97;;;;;;;28.66;68.81;99088.73;1754693;78;21482;-63
2022/08/15 11:31:01;;;;;;;13.00;4.95;;;;;;;28.64;68.35;99069.98;1773426;78;22033;-63
2022/08/15 11:33:42;;;;;;;9.53;5.33;;;;;;;28.60;69.33;99070.59;1770102;78;21511;-64
2022/08/15 11:36:24;;;;;;;7.95;4.85;;;;;;;28.54;70.32;99057.34;1768071;78;21448;-63
2022/08/15 11:39:05;;;;;;;8.65;5.40;;;;;;;28.44;71.98;99074.36;1766191;78;20950;-62
2022/08/15 11:41:37;;;;;;;10.72;5.12;;;;;;;28.49;72.35;99071.92;1777284;78;21522;-62
2022/08/15 11:44:06;;;;;;;10.03;5.53;;;;;;;28.49;72.51;99078.16;1772859;78;21577;-64
2022/08/15 11:46:34;;;;;;;11.25;5.22;;;;;;;28.53;72.21;99086.22;1778340;78;21594;-63
2022/08/15 11:49:11;;;;;;;12.13;5.25;;;;;;;28.62;70.91;99080.16;1771452;79;20951;-62
2022/08/15 11:51:44;;;;;;;14.80;5.17;;;;;;;28.71;70.59;99085.75;1775806;78;21501;-64
2022/08/15 11:54:17;;;;;;;9.28;5.40;;;;;;;28.66;72.26;99093.61;1765675;78;21392;-63
2022/08/15 11:56:48;;;;;;;10.90;5.35;;;;;;;28.71;72.54;99088.98;1763433;78;21915;-63
2022/08/15 11:59:27;;;;;;;9.43;5.12;;;;;;;28.62;73.03;99104.50;1775658;78;21596;-64
2022/08/15 12:02:14;;;;;;;11.40;5.67;;;;;;;28.56;73.02;99094.48;1777410;78;21415;-63
2022/08/15 12:04:43;;;;;;;13.05;5.47;;;;;;;28.52;74.73;99089.97;1766947;78;20997;-62
2022/08/15 12:07:28;;;;;;;14.33;5.28;;;;;;;28.37;77.21;99091.03;1774219;78;21408;-63
2022/08/15 12:12:31;;;;;;;7.53;5.42;;;;;;;27.53;83.38;99125.63;1773545;78;22678;-63
2022/08/15 12:15:09;;;;;;;8.93;5.45;;;;;;;27.98;78.49;99101.80;1743245;80;21600;-63
2022/08/15 12:17:36;;;;;;;9.35;5.75;;;;;;;27.88;78.87;99088.58;1703198;81;21935;-62